Time,TemperatureF,DewpointF,PressureIn,WindDirection,WindDirectionDegrees,WindSpeedMPH,WindSpeedGustMPH,Humidity,HourlyPrecipIn,Conditions,Clouds,dailyrainin,SolarRadiationWatts/m^2,SoftwareType,DateUTC
2013-10-07 00:00:00,52.7,49.5,30.01,ESE,116,4.0,22.0,89,0.00,,---,0.14,0.00,VWS V14.00,2013-10-07 04:00:00,
2013-10-07 00:01:00,52.7,49.5,30.01,SSE,155,4.0,22.0,89,0.00,,---,0.14,0.00,VWS V14.00,2013-10-07 04:01:00,
2013-10-07 00:02:00,52.6,49.5,30.01,East,96,8.0,22.0,89,0.00,,---,0.14,0.00,VWS V14.00,2013-10-07 04:02:00,
2013-10-07 00:07:00,52.7,49.5,30.00,South,189,8.0,22.0,89,0.00,,---,0.14,0.00,VWS V14.00,2013-10-07 04:07:00,
2013-10-07 00:12:00,52.6,49.5,30.00,ESE,106,7.0,23.0,89,0.00,,---,0.14,0.00,VWS V14.00,2013-10-07 04:12:00,
2013-10-07 00:17:00,52.3,49.2,30.00,SE,131,2.0,23.0,89,0.00,,---,0.14,0.00,VWS V14.00,2013-10-07 04:17:00,
2013-10-07 00:22:00,52.4,49.3,30.00,SSE,163,5.0,16.0,89,0.00,,---,0.14,0.00,VWS V14.00,2013-10-07 04:22:00,
2013-10-07 00:27:00,52.5,49.4,30.00,SSE,161,4.0,16.0,89,0.00,,---,0.14,0.00,VWS V14.00,2013-10-07 04:27:00,
2013-10-07 00:30:00,55.0,41.8,30.07,SE,133,2.0,7.0,61,0.00,,---,0.00,0.00,VWS V14.00,2013-10-07 04:30:00,
2013-10-07 00:32:00,52.3,49.2,30.00,ESE,121,4.0,16.0,89,0.00,,---,0.14,0.00,VWS V14.00,2013-10-07 04:32:00,
2013-10-07 00:37:00,52.4,49.3,30.00,SE,124,6.0,19.0,89,0.00,,---,0.14,0.00,VWS V14.00,2013-10-07 04:37:00,
2013-10-07 00:42:00,52.6,49.5,30.00,East,101,13.0,19.0,89,0.00,,---,0.14,0.00,VWS V14.00,2013-10-07 04:42:00,
2013-10-07 00:47:00,52.8,49.7,30.00,SE,133,7.0,19.0,89,0.00,,---,0.14,0.00,VWS V14.00,2013-10-07 04:47:00,
2013-10-07 00:52:00,52.8,49.7,30.00,SSE,148,3.0,10.0,89,0.00,,---,0.14,0.00,VWS V14.00,2013-10-07 04:52:00,
2013-10-07 00:57:00,52.8,49.7,30.00,ESE,120,13.0,18.0,89,0.00,,---,0.14,0.00,VWS V14.00,2013-10-07 04:57:00,
2013-10-07 01:00:00,54.7,41.1,30.07,East,96,6.0,12.0,60,0.00,,---,0.00,0.00,VWS V14.00,2013-10-07 05:00:00,
2013-10-07 01:02:00,52.9,49.8,30.00,SSE,151,4.0,18.0,89,0.00,,---,0.14,0.00,VWS V14.00,2013-10-07 05:02:00,
2013-10-07 01:07:00,52.8,49.7,30.00,East,98,6.0,27.0,89,0.00,,---,0.14,0.00,VWS V14.00,2013-10-07 05:07:00,
2013-10-07 01:12:00,52.7,49.5,30.00,SSE,159,3.0,27.0,89,0.00,,---,0.14,0.00,VWS V14.00,2013-10-07 05:12:00,
2013-10-07 01:17:00,52.6,49.5,29.99,SE,125,5.0,27.0,89,0.00,,---,0.14,0.00,VWS V14.00,2013-10-07 05:17:00,
2013-10-07 01:22:00,52.7,49.5,30.00,ESE,105,7.0,14.0,89,0.00,,---,0.14,0.00,VWS V14.00,2013-10-07 05:22:00,
2013-10-07 01:27:00,52.8,49.7,30.00,ESE,120,2.0,14.0,89,0.00,,---,0.14,0.00,VWS V14.00,2013-10-07 05:27:00,
2013-10-07 01:30:00,54.5,40.5,30.08,ESE,109,3.0,10.0,59,0.00,,---,0.00,0.00,VWS V14.00,2013-10-07 05:30:00,
2013-10-07 01:32:00,53.0,49.8,29.99,ESE,107,5.0,16.0,89,0.00,,---,0.14,0.00,VWS V14.00,2013-10-07 05:32:00,
2013-10-07 01:37:00,53.2,50.0,30.00,East,101,8.0,16.0,89,0.00,,---,0.14,0.00,VWS V14.00,2013-10-07 05:37:00,
2013-10-07 01:42:00,53.2,50.0,29.99,ESE,122,12.0,23.0,89,0.00,,---,0.14,0.00,VWS V14.00,2013-10-07 05:42:00,
2013-10-07 01:47:00,52.9,49.8,29.99,East,99,10.0,23.0,89,0.00,,---,0.14,0.00,VWS V14.00,2013-10-07 05:47:00,
2013-10-07 01:52:00,53.2,50.0,29.99,South,172,4.0,14.0,89,0.00,,---,0.14,0.00,VWS V14.00,2013-10-07 05:52:00,
2013-10-07 01:57:00,53.2,50.0,29.98,SSE,157,2.0,14.0,89,0.00,,---,0.14,0.00,VWS V14.00,2013-10-07 05:57:00,
2013-10-07 02:00:00,54.6,39.2,30.08,ESE,121,1.0,8.0,56,0.00,,---,0.00,0.00,VWS V14.00,2013-10-07 06:00:00,
2013-10-07 02:02:00,53.3,50.2,29.98,ENE,70,2.0,20.0,89,0.00,,---,0.14,0.00,VWS V14.00,2013-10-07 06:02:00,
2013-10-07 02:07:00,53.1,50.0,29.98,SSE,164,2.0,20.0,89,0.00,,---,0.14,0.00,VWS V14.00,2013-10-07 06:07:00,
2013-10-07 02:12:00,53.0,49.8,29.98,SE,146,1.0,20.0,89,0.00,,---,0.14,0.00,VWS V14.00,2013-10-07 06:12:00,
2013-10-07 02:17:00,53.2,50.9,29.98,ESE,102,3.0,20.0,92,0.00,,---,0.14,0.00,VWS V14.00,2013-10-07 06:17:00,
2013-10-07 02:22:00,53.3,51.0,29.97,East,101,9.0,15.0,92,0.00,,---,0.14,0.00,VWS V14.00,2013-10-07 06:22:00,
2013-10-07 02:28:00,53.0,49.8,29.97,SSE,157,7.0,15.0,89,0.00,,---,0.14,0.00,VWS V14.00,2013-10-07 06:28:00,
2013-10-07 02:30:00,54.8,38.0,30.08,ESE,118,4.0,8.0,53,0.00,,---,0.00,0.00,VWS V14.00,2013-10-07 06:30:00,
2013-10-07 02:33:00,53.1,50.0,29.97,East,92,8.0,15.0,89,0.00,,---,0.14,0.00,VWS V14.00,2013-10-07 06:33:00,
2013-10-07 02:38:00,53.4,50.2,29.97,SE,133,6.0,18.0,89,0.00,,---,0.14,0.00,VWS V14.00,2013-10-07 06:38:00,
2013-10-07 02:43:00,53.6,50.4,29.96,ESE,109,3.0,18.0,89,0.00,,---,0.14,0.00,VWS V14.00,2013-10-07 06:43:00,
2013-10-07 02:48:00,53.6,50.4,29.96,East,97,7.0,18.0,89,0.00,,---,0.14,0.00,VWS V14.00,2013-10-07 06:48:00,
2013-10-07 02:53:00,53.5,50.3,29.96,SE,134,2.0,2.0,89,0.00,,---,0.00,0.00,VWS V14.00,2013-10-07 06:53:00,
2013-10-07 02:58:00,53.5,50.3,29.96,ESE,117,4.0,17.0,89,0.00,,---,0.00,0.00,VWS V14.00,2013-10-07 06:58:00,
2013-10-07 03:00:00,54.8,37.5,30.08,SSE,165,5.0,7.0,52,0.00,,---,0.00,0.00,VWS V14.00,2013-10-07 07:00:00,
2013-10-07 03:03:00,53.8,50.6,29.96,ESE,118,8.0,17.0,89,0.00,,---,0.00,0.00,VWS V14.00,2013-10-07 07:03:00,
2013-10-07 03:08:00,54.1,50.9,29.95,ESE,112,4.0,17.0,89,0.00,,---,0.00,0.00,VWS V14.00,2013-10-07 07:08:00,
2013-10-07 03:13:00,54.2,51.0,29.95,ESE,113,10.0,17.0,89,0.00,,---,0.00,0.00,VWS V14.00,2013-10-07 07:13:00,
2013-10-07 03:18:00,54.3,50.8,29.95,SE,126,4.0,17.0,88,0.00,,---,0.00,0.00,VWS V14.00,2013-10-07 07:18:00,
2013-10-07 03:23:00,54.4,50.9,29.95,SE,130,4.0,13.0,88,0.00,,---,0.00,0.00,VWS V14.00,2013-10-07 07:23:00,
2013-10-07 03:28:00,54.6,51.4,29.95,ESE,113,7.0,13.0,89,0.00,,---,0.00,0.00,VWS V14.00,2013-10-07 07:28:00,
2013-10-07 03:30:00,54.5,38.2,30.08,SSE,168,2.0,11.0,54,0.00,,---,0.00,0.00,VWS V14.00,2013-10-07 07:30:00,
2013-10-07 03:33:00,54.6,51.1,29.95,SSE,154,3.0,14.0,88,0.00,,---,0.00,0.00,VWS V14.00,2013-10-07 07:33:00,
2013-10-07 03:38:00,54.4,50.9,29.94,East,94,11.0,14.0,88,0.00,,---,0.00,0.00,VWS V14.00,2013-10-07 07:38:00,
2013-10-07 03:43:00,54.5,51.0,29.95,East,92,3.0,14.0,88,0.00,,---,0.00,0.00,VWS V14.00,2013-10-07 07:43:00,
2013-10-07 03:48:00,54.6,51.4,29.94,East,100,8.0,14.0,89,0.00,,---,0.00,0.00,VWS V14.00,2013-10-07 07:48:00,
2013-10-07 03:53:00,54.6,51.1,29.94,ENE,66,4.0,6.0,88,0.00,,---,0.00,0.00,VWS V14.00,2013-10-07 07:53:00,
2013-10-07 03:58:00,54.8,51.3,29.94,ESE,103,3.0,9.0,88,0.00,,---,0.00,0.00,VWS V14.00,2013-10-07 07:58:00,
2013-10-07 04:00:00,54.1,39.7,30.08,South,184,4.0,8.0,58,0.00,,---,0.00,0.00,VWS V14.00,2013-10-07 08:00:00,
2013-10-07 04:03:00,54.8,51.3,29.94,ESE,120,5.0,9.0,88,0.00,,---,0.00,0.00,VWS V14.00,2013-10-07 08:03:00,
2013-10-07 04:08:00,54.8,51.3,29.94,SSE,155,4.0,14.0,88,0.00,,---,0.00,0.00,VWS V14.00,2013-10-07 08:08:00,
2013-10-07 04:13:00,55.0,51.5,29.94,ESE,111,7.0,14.0,88,0.00,,---,0.00,0.00,VWS V14.00,2013-10-07 08:13:00,
2013-10-07 04:18:00,55.3,51.8,29.93,SE,144,6.0,14.0,88,0.00,,---,0.00,0.00,VWS V14.00,2013-10-07 08:18:00,
2013-10-07 04:23:00,55.1,51.6,29.93,ESE,103,12.0,12.0,88,0.00,,---,0.00,0.00,VWS V14.00,2013-10-07 08:23:00,
2013-10-07 04:28:00,55.3,52.1,29.93,ENE,78,8.0,16.0,89,0.00,,---,0.00,0.00,VWS V14.00,2013-10-07 08:28:00,
2013-10-07 04:30:00,54.2,41.1,30.09,SSW,193,1.0,10.0,61,0.00,,---,0.00,30.00,VWS V14.00,2013-10-07 08:30:00,
2013-10-07 04:33:00,55.4,51.9,29.93,East,101,5.0,20.0,88,0.00,,---,0.00,0.00,VWS V14.00,2013-10-07 08:33:00,
2013-10-07 04:38:00,55.7,52.2,29.92,SE,141,6.0,20.0,88,0.00,,---,0.00,0.00,VWS V14.00,2013-10-07 08:38:00,
2013-10-07 04:43:00,55.8,52.3,29.92,ESE,115,7.0,23.0,88,0.00,,---,0.00,0.00,VWS V14.00,2013-10-07 08:43:00,
2013-10-07 04:48:00,55.8,52.3,29.93,ESE,102,4.0,23.0,88,0.00,,---,0.00,0.00,VWS V14.00,2013-10-07 08:48:00,
2013-10-07 04:53:00,55.7,52.2,29.93,ESE,107,11.0,15.0,88,0.00,,---,0.00,0.00,VWS V14.00,2013-10-07 08:53:00,
2013-10-07 04:58:00,55.8,52.6,29.92,ESE,123,4.0,15.0,89,0.00,,---,0.00,0.00,VWS V14.00,2013-10-07 08:58:00,
2013-10-07 05:00:00,54.3,42.8,30.09,South,171,2.0,18.0,65,0.00,,---,0.00,35.00,VWS V14.00,2013-10-07 09:00:00,
2013-10-07 05:03:00,56.2,53.0,29.92,ESE,113,13.0,15.0,89,0.00,,---,0.00,0.00,VWS V14.00,2013-10-07 09:03:00,
2013-10-07 05:08:00,56.3,52.8,29.92,ENE,72,7.0,15.0,88,0.00,,---,0.00,0.00,VWS V14.00,2013-10-07 09:08:00,
2013-10-07 05:13:00,56.2,52.7,29.92,ESE,117,9.0,15.0,88,0.00,,---,0.00,0.00,VWS V14.00,2013-10-07 09:13:00,
2013-10-07 05:18:00,55.8,52.3,29.92,ESE,105,3.0,17.0,88,0.00,,---,0.00,0.00,VWS V14.00,2013-10-07 09:18:00,
2013-10-07 05:23:00,55.8,52.3,29.92,ESE,117,3.0,17.0,88,0.00,,---,0.00,0.00,VWS V14.00,2013-10-07 09:23:00,
2013-10-07 05:28:00,55.5,52.0,29.92,East,79,10.0,17.0,88,0.00,,---,0.00,0.00,VWS V14.00,2013-10-07 09:28:00,
2013-10-07 05:30:00,54.0,44.1,30.09,ESE,103,4.0,8.0,69,0.00,,---,0.00,93.00,VWS V14.00,2013-10-07 09:30:00,
2013-10-07 05:33:00,55.7,52.5,29.92,SSE,160,4.0,17.0,89,0.00,,---,0.00,0.00,VWS V14.00,2013-10-07 09:33:00,
2013-10-07 05:38:00,55.8,52.6,29.92,SE,130,3.0,17.0,89,0.00,,---,0.00,0.00,VWS V14.00,2013-10-07 09:38:00,
2013-10-07 05:43:00,56.3,53.1,29.92,SE,136,3.0,17.0,89,0.00,,---,0.00,0.00,VWS V14.00,2013-10-07 09:43:00,
2013-10-07 05:48:00,56.6,53.4,29.92,ESE,103,2.0,17.0,89,0.00,,---,0.00,0.00,VWS V14.00,2013-10-07 09:48:00,
2013-10-07 05:53:00,56.8,53.6,29.92,ESE,121,8.0,11.0,89,0.00,,---,0.00,0.00,VWS V14.00,2013-10-07 09:53:00,
2013-10-07 05:58:00,56.9,53.4,29.92,SE,124,4.0,11.0,88,0.00,,---,0.00,0.00,VWS V14.00,2013-10-07 09:58:00,
2013-10-07 06:00:00,53.4,44.2,30.10,SE,138,3.0,15.0,71,0.00,,---,0.00,77.00,VWS V14.00,2013-10-07 10:00:00,
2013-10-07 06:03:00,56.6,53.1,29.92,ESE,119,5.0,11.0,88,0.00,,---,0.00,0.00,VWS V14.00,2013-10-07 10:03:00,
2013-10-07 06:08:00,56.6,53.1,29.92,SE,145,2.0,11.0,88,0.00,,---,0.00,0.00,VWS V14.00,2013-10-07 10:08:00,
2013-10-07 06:13:00,56.1,52.6,29.92,SE,146,8.0,11.0,88,0.00,,---,0.00,0.00,VWS V14.00,2013-10-07 10:13:00,
2013-10-07 06:18:00,56.2,52.7,29.91,ESE,115,3.0,11.0,88,0.00,,---,0.00,0.00,VWS V14.00,2013-10-07 10:18:00,
2013-10-07 06:23:00,56.4,53.2,29.92,ESE,117,8.0,8.0,89,0.00,,---,0.00,0.00,VWS V14.00,2013-10-07 10:23:00,
2013-10-07 06:28:00,56.8,53.6,29.91,ESE,118,2.0,10.0,89,0.00,,---,0.00,0.00,VWS V14.00,2013-10-07 10:28:00,
2013-10-07 06:30:00,53.3,45.6,30.09,SSE,150,8.0,19.0,75,0.00,,---,0.00,123.00,VWS V14.00,2013-10-07 10:30:00,
2013-10-07 06:33:00,57.0,53.5,29.91,ESE,117,2.0,16.0,88,0.00,,---,0.00,0.00,VWS V14.00,2013-10-07 10:33:00,
2013-10-07 06:38:00,57.2,53.7,29.91,ESE,119,7.0,16.0,88,0.00,,---,0.00,0.00,VWS V14.00,2013-10-07 10:38:00,
2013-10-07 06:43:00,57.4,53.9,29.91,ESE,112,4.0,16.0,88,0.00,,---,0.00,0.00,VWS V14.00,2013-10-07 10:43:00,
2013-10-07 06:48:00,57.7,54.2,29.91,ESE,103,3.0,16.0,88,0.00,,---,0.00,0.00,VWS V14.00,2013-10-07 10:48:00,
2013-10-07 06:53:00,57.8,54.0,29.91,SE,137,13.0,13.0,87,0.00,,---,0.00,0.00,VWS V14.00,2013-10-07 10:53:00,
2013-10-07 06:58:00,58.5,55.0,29.90,SE,127,4.0,17.0,88,0.00,,---,0.00,0.00,VWS V14.00,2013-10-07 10:58:00,
2013-10-07 07:00:00,52.7,46.4,30.09,SSE,152,2.0,15.0,79,0.00,,---,0.00,84.00,VWS V14.00,2013-10-07 11:00:00,
2013-10-07 07:03:00,59.1,55.2,29.90,SE,146,2.0,19.0,87,0.00,,---,0.00,0.00,VWS V14.00,2013-10-07 11:03:00,
2013-10-07 07:08:00,59.4,55.2,29.89,ESE,120,12.0,19.0,86,0.00,,---,0.00,0.00,VWS V14.00,2013-10-07 11:08:00,
2013-10-07 07:13:00,59.8,55.6,29.89,East,100,5.0,22.0,86,0.00,,---,0.00,7.00,VWS V14.00,2013-10-07 11:13:00,
2013-10-07 07:18:00,59.6,55.4,29.89,East,81,9.0,22.0,86,0.00,,---,0.00,9.00,VWS V14.00,2013-10-07 11:18:00,
2013-10-07 07:23:00,59.7,55.2,29.89,SE,139,5.0,12.0,85,0.00,,---,0.00,11.00,VWS V14.00,2013-10-07 11:23:00,
2013-10-07 07:28:00,59.7,55.2,29.88,ESE,115,4.0,14.0,85,0.00,,---,0.00,14.00,VWS V14.00,2013-10-07 11:28:00,
2013-10-07 07:30:00,52.6,46.6,30.09,ESE,112,4.0,18.0,80,0.00,,---,0.00,114.00,VWS V14.00,2013-10-07 11:30:00,
2013-10-07 07:33:00,59.5,55.3,29.89,ESE,117,3.0,14.0,86,0.00,,---,0.00,30.00,VWS V14.00,2013-10-07 11:33:00,
2013-10-07 07:38:00,59.7,55.5,29.89,ESE,121,4.0,14.0,86,0.00,,---,0.00,11.00,VWS V14.00,2013-10-07 11:38:00,
2013-10-07 07:43:00,59.7,55.5,29.89,ENE,78,4.0,14.0,86,0.00,,---,0.00,21.00,VWS V14.00,2013-10-07 11:43:00,
2013-10-07 07:48:00,59.5,55.0,29.89,ESE,117,5.0,16.0,85,0.00,,---,0.00,18.00,VWS V14.00,2013-10-07 11:48:00,
2013-10-07 07:53:00,59.4,55.2,29.89,ENE,74,4.0,17.0,86,0.00,,---,0.00,18.00,VWS V14.00,2013-10-07 11:53:00,
2013-10-07 07:58:00,60.0,55.8,29.89,ESE,109,8.0,23.0,86,0.00,,---,0.00,14.00,VWS V14.00,2013-10-07 11:58:00,
2013-10-07 08:00:00,52.6,46.9,30.09,SE,129,3.0,22.0,81,0.00,,---,0.00,121.00,VWS V14.00,2013-10-07 12:00:00,
2013-10-07 08:03:00,60.3,56.1,29.89,South,180,3.0,23.0,86,0.00,,---,0.00,23.00,VWS V14.00,2013-10-07 12:03:00,
2013-10-07 08:08:00,60.0,55.5,29.88,East,98,7.0,23.0,85,0.00,,---,0.00,26.00,VWS V14.00,2013-10-07 12:08:00,
2013-10-07 08:13:00,60.4,56.2,29.88,ESE,114,7.0,23.0,86,0.00,,---,0.00,28.00,VWS V14.00,2013-10-07 12:13:00,
2013-10-07 08:19:00,60.8,56.3,29.88,SSE,157,3.0,23.0,85,0.00,,---,0.00,47.00,VWS V14.00,2013-10-07 12:19:00,
2013-10-07 08:24:00,60.7,56.2,29.89,ESE,119,13.0,13.0,85,0.00,,---,0.00,46.00,VWS V14.00,2013-10-07 12:24:00,
2013-10-07 08:29:00,60.8,56.3,29.88,ESE,113,4.0,14.0,85,0.00,,---,0.00,32.00,VWS V14.00,2013-10-07 12:29:00,
2013-10-07 08:30:00,51.9,46.9,30.09,SSE,161,7.0,24.0,83,0.00,,---,0.00,98.00,VWS V14.00,2013-10-07 12:30:00,
2013-10-07 08:34:00,60.8,56.3,29.88,ESE,112,3.0,14.0,85,0.00,,---,0.00,23.00,VWS V14.00,2013-10-07 12:34:00,
2013-10-07 08:39:00,61.5,57.0,29.88,ESE,111,8.0,14.0,85,0.00,,---,0.00,16.00,VWS V14.00,2013-10-07 12:39:00,
2013-10-07 08:44:00,60.8,55.9,29.88,ESE,109,4.0,15.0,84,0.00,,---,0.00,18.00,VWS V14.00,2013-10-07 12:44:00,
2013-10-07 08:49:00,60.9,56.4,29.88,South,173,2.0,15.0,85,0.00,,---,0.00,16.00,VWS V14.00,2013-10-07 12:49:00,
2013-10-07 08:54:00,61.0,56.1,29.88,East,100,14.0,14.0,84,0.00,,---,0.00,39.00,VWS V14.00,2013-10-07 12:54:00,
2013-10-07 08:59:00,60.9,56.4,29.88,SE,130,3.0,15.0,85,0.00,,---,0.00,69.00,VWS V14.00,2013-10-07 12:59:00,
2013-10-07 09:00:00,50.9,46.2,30.09,ESE,120,7.0,25.0,84,0.00,,---,0.00,79.00,VWS V14.00,2013-10-07 13:00:00,
2013-10-07 09:04:00,61.1,56.6,29.87,SSE,148,3.0,15.0,85,0.00,,---,0.00,100.00,VWS V14.00,2013-10-07 13:04:00,
2013-10-07 09:09:00,61.0,56.5,29.87,ESE,118,1.0,15.0,85,0.00,,---,0.00,91.00,VWS V14.00,2013-10-07 13:09:00,
2013-10-07 09:14:00,61.6,57.0,29.87,SE,139,2.0,15.0,85,0.00,,---,0.00,51.00,VWS V14.00,2013-10-07 13:14:00,
2013-10-07 09:19:00,61.6,57.0,29.87,SSE,158,3.0,15.0,85,0.00,,---,0.00,30.00,VWS V14.00,2013-10-07 13:19:00,
2013-10-07 09:24:00,61.5,57.0,29.87,SSE,151,2.0,4.0,85,0.00,,---,0.00,49.00,VWS V14.00,2013-10-07 13:24:00,
2013-10-07 09:29:00,61.3,57.1,29.86,ESE,115,2.0,7.0,86,0.01,,---,0.01,47.00,VWS V14.00,2013-10-07 13:29:00,
2013-10-07 09:30:00,50.3,46.3,30.08,SSE,153,11.0,27.0,86,0.01,,---,0.01,91.00,VWS V14.00,2013-10-07 13:30:00,
2013-10-07 09:34:00,61.1,57.2,29.86,ESE,112,3.0,8.0,87,0.01,,---,0.01,47.00,VWS V14.00,2013-10-07 13:34:00,
2013-10-07 09:39:00,61.1,57.2,29.86,East,101,11.0,13.0,87,0.01,,---,0.01,74.00,VWS V14.00,2013-10-07 13:39:00,
2013-10-07 09:44:00,61.4,57.5,29.85,East,92,13.0,15.0,87,0.01,,---,0.01,155.00,VWS V14.00,2013-10-07 13:44:00,
2013-10-07 09:49:00,62.1,58.2,29.85,SE,135,5.0,15.0,87,0.01,,---,0.01,83.00,VWS V14.00,2013-10-07 13:49:00,
2013-10-07 09:54:00,62.2,58.0,29.85,South,173,8.0,10.0,86,0.01,,---,0.01,239.00,VWS V14.00,2013-10-07 13:54:00,
2013-10-07 09:59:00,63.2,59.0,29.84,SSE,166,2.0,18.0,86,0.01,,---,0.01,199.00,VWS V14.00,2013-10-07 13:59:00,
2013-10-07 10:00:00,49.9,46.2,30.07,ESE,105,13.0,32.0,87,0.01,,---,0.01,81.00,VWS V14.00,2013-10-07 14:00:00,
2013-10-07 10:04:00,63.5,58.6,29.84,WSW,250,2.0,18.0,84,0.01,,---,0.01,230.00,VWS V14.00,2013-10-07 14:04:00,
2013-10-07 10:09:00,63.8,58.9,29.84,East,90,10.0,18.0,84,0.01,,---,0.01,248.00,VWS V14.00,2013-10-07 14:09:00,
2013-10-07 10:14:00,64.0,58.7,29.83,SE,134,7.0,23.0,83,0.01,,---,0.01,223.00,VWS V14.00,2013-10-07 14:14:00,
2013-10-07 10:19:00,64.5,58.9,29.83,ESE,123,8.0,23.0,82,0.01,,---,0.01,425.00,VWS V14.00,2013-10-07 14:19:00,
2013-10-07 10:24:00,64.8,59.2,29.82,East,96,11.0,16.0,82,0.01,,---,0.01,427.00,VWS V14.00,2013-10-07 14:24:00,
2013-10-07 10:29:00,64.7,58.7,29.82,South,183,8.0,16.0,81,0.01,,---,0.01,478.00,VWS V14.00,2013-10-07 14:29:00,
2013-10-07 10:30:00,49.9,46.2,30.06,East,96,18.0,25.0,87,0.01,,---,0.01,188.00,VWS V14.00,2013-10-07 14:30:00,
2013-10-07 10:34:00,64.9,59.3,29.82,SE,126,4.0,16.0,82,0.01,,---,0.01,506.00,VWS V14.00,2013-10-07 14:34:00,
2013-10-07 10:39:00,65.3,59.3,29.81,East,79,16.0,21.0,81,0.01,,---,0.01,503.00,VWS V14.00,2013-10-07 14:39:00,
2013-10-07 10:44:00,65.9,59.2,29.80,SE,130,5.0,28.0,79,0.01,,---,0.01,466.00,VWS V14.00,2013-10-07 14:44:00,
2013-10-07 10:49:00,66.1,59.4,29.80,ESE,111,7.0,28.0,79,0.01,,---,0.01,410.00,VWS V14.00,2013-10-07 14:49:00,
2013-10-07 10:54:00,66.0,59.3,29.80,SE,141,6.0,21.0,79,0.00,,---,0.01,93.00,VWS V14.00,2013-10-07 14:54:00,
2013-10-07 10:59:00,66.0,59.3,29.79,ESE,111,9.0,21.0,79,0.00,,---,0.01,72.00,VWS V14.00,2013-10-07 14:59:00,
2013-10-07 11:00:00,50.4,46.7,30.06,SE,130,5.0,28.0,87,0.00,,---,0.01,165.00,VWS V14.00,2013-10-07 15:00:00,
2013-10-07 11:04:00,66.5,59.4,29.78,ESE,123,8.0,26.0,78,0.00,,---,0.01,227.00,VWS V14.00,2013-10-07 15:04:00,
2013-10-07 11:09:00,66.6,59.5,29.78,SE,138,6.0,26.0,78,0.00,,---,0.01,174.00,VWS V14.00,2013-10-07 15:09:00,
2013-10-07 11:14:00,66.9,59.8,29.78,SSE,153,4.0,26.0,78,0.00,,---,0.01,218.00,VWS V14.00,2013-10-07 15:14:00,
2013-10-07 11:19:00,67.5,59.7,29.77,SSE,152,5.0,27.0,76,0.00,,---,0.01,236.00,VWS V14.00,2013-10-07 15:19:00,
2013-10-07 11:24:00,67.9,60.1,29.78,ENE,62,3.0,19.0,76,0.00,,---,0.01,336.00,VWS V14.00,2013-10-07 15:24:00,
2013-10-07 11:29:00,68.4,60.5,29.78,SSE,159,6.0,27.0,76,0.00,,---,0.01,141.00,VWS V14.00,2013-10-07 15:29:00,
2013-10-07 11:30:00,49.6,45.9,30.06,SE,128,6.0,28.0,87,0.00,,---,0.01,60.00,VWS V14.00,2013-10-07 15:30:00,
2013-10-07 11:34:00,68.3,60.1,29.77,ESE,114,10.0,27.0,75,0.00,,---,0.01,167.00,VWS V14.00,2013-10-07 15:34:00,
2013-10-07 11:39:00,68.5,60.6,29.77,ESE,114,7.0,27.0,76,0.00,,---,0.01,104.00,VWS V14.00,2013-10-07 15:39:00,
2013-10-07 11:44:00,68.6,60.7,29.77,East,92,6.0,27.0,76,0.00,,---,0.01,162.00,VWS V14.00,2013-10-07 15:44:00,
2013-10-07 11:49:00,68.4,60.5,29.76,ESE,113,5.0,27.0,76,0.00,,---,0.01,214.00,VWS V14.00,2013-10-07 15:49:00,
2013-10-07 11:54:00,68.6,60.7,29.76,ESE,121,4.0,22.0,76,0.00,,---,0.01,334.00,VWS V14.00,2013-10-07 15:54:00,
2013-10-07 11:59:00,68.9,61.0,29.76,SE,128,5.0,22.0,76,0.00,,---,0.01,336.00,VWS V14.00,2013-10-07 15:59:00,
2013-10-07 12:00:00,49.0,45.6,30.05,East,87,7.0,26.0,88,0.02,,---,0.03,65.00,VWS V14.00,2013-10-07 16:00:00,
2013-10-07 12:04:00,69.0,60.8,29.76,ESE,123,4.0,22.0,75,0.00,,---,0.01,520.00,VWS V14.00,2013-10-07 16:04:00,
2013-10-07 12:09:00,68.9,61.0,29.76,SE,140,4.0,22.0,76,0.00,,---,0.01,707.00,VWS V14.00,2013-10-07 16:09:00,
2013-10-07 12:14:00,68.8,60.6,29.75,ESE,122,7.0,22.0,75,0.00,,---,0.01,742.00,VWS V14.00,2013-10-07 16:14:00,
2013-10-07 12:19:00,69.7,61.8,29.75,East,101,7.0,22.0,76,0.00,,---,0.01,749.00,VWS V14.00,2013-10-07 16:19:00,
2013-10-07 12:24:00,69.4,61.1,29.75,ESE,123,8.0,16.0,75,0.00,,---,0.01,636.00,VWS V14.00,2013-10-07 16:24:00,
2013-10-07 12:29:00,69.6,61.0,29.75,SSE,165,4.0,22.0,74,0.00,,---,0.01,292.00,VWS V14.00,2013-10-07 16:29:00,
2013-10-07 12:30:00,48.8,45.7,30.05,East,101,9.0,19.0,89,0.04,,---,0.05,47.00,VWS V14.00,2013-10-07 16:30:00,
2013-10-07 12:34:00,69.9,60.9,29.74,SE,128,5.0,22.0,73,0.00,,---,0.01,308.00,VWS V14.00,2013-10-07 16:34:00,
2013-10-07 12:39:00,70.4,61.0,29.73,South,187,11.0,23.0,72,0.00,,---,0.01,301.00,VWS V14.00,2013-10-07 16:39:00,
2013-10-07 12:44:00,71.7,61.0,29.73,SE,126,6.0,23.0,69,0.00,,---,0.01,462.00,VWS V14.00,2013-10-07 16:44:00,
2013-10-07 12:49:00,71.9,60.8,29.72,SE,144,4.0,23.0,68,0.00,,---,0.01,803.00,VWS V14.00,2013-10-07 16:49:00,
2013-10-07 12:54:00,71.7,60.6,29.72,South,178,5.0,22.0,68,0.00,,---,0.01,359.00,VWS V14.00,2013-10-07 16:54:00,
2013-10-07 12:59:00,71.7,61.0,29.71,SSE,157,5.0,22.0,69,0.00,,---,0.01,714.00,VWS V14.00,2013-10-07 16:59:00,
2013-10-07 13:00:00,48.7,45.6,30.05,SSE,149,4.0,24.0,89,0.07,,---,0.08,23.00,VWS V14.00,2013-10-07 17:00:00,
2013-10-07 13:04:00,71.9,60.8,29.70,SSE,149,7.0,22.0,68,0.00,,---,0.01,647.00,VWS V14.00,2013-10-07 17:04:00,
2013-10-07 13:09:00,72.0,61.3,29.70,SSE,155,8.0,22.0,69,0.00,,---,0.01,664.00,VWS V14.00,2013-10-07 17:09:00,
2013-10-07 13:14:00,72.1,61.0,29.69,SSE,165,10.0,22.0,68,0.00,,---,0.01,376.00,VWS V14.00,2013-10-07 17:14:00,
2013-10-07 13:19:00,71.2,60.9,29.68,SE,144,7.0,22.0,70,0.00,,---,0.01,199.00,VWS V14.00,2013-10-07 17:19:00,
2013-10-07 13:24:00,70.7,60.5,29.67,ESE,115,10.0,17.0,70,0.00,,---,0.01,325.00,VWS V14.00,2013-10-07 17:24:00,
2013-10-07 13:29:00,71.2,61.3,29.67,SSE,165,15.0,17.0,71,0.00,,---,0.01,325.00,VWS V14.00,2013-10-07 17:29:00,
2013-10-07 13:30:00,48.8,46.0,30.04,ESE,102,9.0,22.0,90,0.09,,---,0.12,18.00,VWS V14.00,2013-10-07 17:30:00,
2013-10-07 13:34:00,71.3,61.0,29.67,SSE,164,9.0,17.0,70,0.00,,---,0.01,338.00,VWS V14.00,2013-10-07 17:34:00,
2013-10-07 13:39:00,71.4,61.1,29.67,South,182,8.0,17.0,70,0.00,,---,0.01,223.00,VWS V14.00,2013-10-07 17:39:00,
2013-10-07 13:44:00,71.2,61.3,29.66,SSE,148,6.0,17.0,71,0.00,,---,0.01,260.00,VWS V14.00,2013-10-07 17:44:00,
2013-10-07 13:49:00,71.1,60.8,29.66,ESE,123,7.0,17.0,70,0.00,,---,0.01,160.00,VWS V14.00,2013-10-07 17:49:00,
2013-10-07 13:54:00,70.9,60.6,29.65,SSE,160,7.0,15.0,70,0.00,,---,0.01,105.00,VWS V14.00,2013-10-07 17:54:00,
2013-10-07 13:59:00,70.5,60.7,29.64,SSE,155,2.0,21.0,71,0.00,,---,0.01,111.00,VWS V14.00,2013-10-07 17:59:00,
2013-10-07 14:00:00,49.7,46.6,30.03,SE,132,12.0,28.0,89,0.09,,---,0.14,18.00,VWS V14.00,2013-10-07 18:00:00,
2013-10-07 14:04:00,70.3,60.9,29.64,SSE,161,8.0,21.0,72,0.00,,---,0.01,69.00,VWS V14.00,2013-10-07 18:04:00,
2013-10-07 14:09:00,69.9,60.9,29.64,SSE,157,4.0,21.0,73,0.00,,---,0.01,137.00,VWS V14.00,2013-10-07 18:09:00,
2013-10-07 14:14:00,69.8,61.2,29.64,SSW,192,9.0,21.0,74,0.00,,---,0.01,130.00,VWS V14.00,2013-10-07 18:14:00,
2013-10-07 14:19:00,69.7,61.8,29.63,ESE,117,8.0,21.0,76,0.00,,---,0.01,229.00,VWS V14.00,2013-10-07 18:19:00,
2013-10-07 14:24:00,68.9,61.8,29.62,East,101,11.0,19.0,78,0.00,,---,0.01,153.00,VWS V14.00,2013-10-07 18:24:00,
2013-10-07 14:29:00,68.6,61.8,29.62,East,94,5.0,19.0,79,0.00,,---,0.01,88.00,VWS V14.00,2013-10-07 18:29:00,
2013-10-07 14:30:00,49.0,46.2,30.05,SSE,156,6.0,20.0,90,0.06,,---,0.14,5.00,VWS V14.00,2013-10-07 18:30:00,
2013-10-07 14:34:00,67.7,61.7,29.61,SE,140,7.0,19.0,81,0.00,,---,0.01,53.00,VWS V14.00,2013-10-07 18:34:00,
2013-10-07 14:39:00,67.1,61.8,29.61,East,97,18.0,19.0,83,0.00,,---,0.01,118.00,VWS V14.00,2013-10-07 18:39:00,
2013-10-07 14:44:00,67.1,61.4,29.60,SE,138,1.0,19.0,82,0.00,,---,0.01,49.00,VWS V14.00,2013-10-07 18:44:00,
2013-10-07 14:49:00,67.0,61.7,29.60,East,79,10.0,19.0,83,0.00,,---,0.01,95.00,VWS V14.00,2013-10-07 18:49:00,
2013-10-07 14:54:00,67.7,61.7,29.59,ESE,123,3.0,12.0,81,0.00,,---,0.01,120.00,VWS V14.00,2013-10-07 18:54:00,
2013-10-07 14:59:00,68.3,61.9,29.59,SE,142,6.0,15.0,80,0.01,,---,0.02,116.00,VWS V14.00,2013-10-07 18:59:00,
2013-10-07 15:00:00,49.0,46.5,30.05,SSE,165,3.0,14.0,91,0.02,,---,0.14,0.00,VWS V14.00,2013-10-07 19:00:00,
2013-10-07 15:04:00,67.9,61.9,29.59,SE,139,2.0,15.0,81,0.01,,---,0.02,116.00,VWS V14.00,2013-10-07 19:04:00,
2013-10-07 15:09:00,67.4,62.1,29.59,South,184,4.0,15.0,83,0.01,,---,0.02,104.00,VWS V14.00,2013-10-07 19:09:00,
2013-10-07 15:14:00,67.6,61.9,29.58,SSE,155,5.0,21.0,82,0.01,,---,0.02,107.00,VWS V14.00,2013-10-07 19:14:00,
2013-10-07 15:19:00,67.6,62.3,29.58,SE,140,9.0,26.0,83,0.02,,---,0.03,77.00,VWS V14.00,2013-10-07 19:19:00,
2013-10-07 15:24:00,67.7,62.0,29.57,South,184,5.0,17.0,82,0.02,,---,0.03,62.00,VWS V14.00,2013-10-07 19:24:00,
2013-10-07 15:29:00,67.9,62.2,29.58,SE,128,3.0,17.0,82,0.02,,---,0.03,83.00,VWS V14.00,2013-10-07 19:29:00,
2013-10-07 15:30:00,49.8,47.0,30.05,SSE,148,5.0,19.0,90,0.00,,---,0.14,0.00,VWS V14.00,2013-10-07 19:30:00,
2013-10-07 15:34:00,68.4,62.3,29.57,SSE,157,5.0,17.0,81,0.02,,---,0.03,114.00,VWS V14.00,2013-10-07 19:34:00,
2013-10-07 15:39:00,68.7,62.6,29.57,SSE,161,3.0,17.0,81,0.02,,---,0.03,76.00,VWS V14.00,2013-10-07 19:39:00,
2013-10-07 15:44:00,68.8,62.7,29.58,ESE,113,10.0,17.0,81,0.02,,---,0.03,44.00,VWS V14.00,2013-10-07 19:44:00,
2013-10-07 15:49:00,68.8,62.7,29.57,ESE,109,7.0,17.0,81,0.02,,---,0.03,26.00,VWS V14.00,2013-10-07 19:49:00,
2013-10-07 15:54:00,69.1,62.7,29.57,SSE,159,5.0,14.0,80,0.02,,---,0.03,33.00,VWS V14.00,2013-10-07 19:54:00,
2013-10-07 15:59:00,69.2,62.8,29.56,SE,142,5.0,21.0,80,0.02,,---,0.03,30.00,VWS V14.00,2013-10-07 19:59:00,
2013-10-07 16:00:00,49.7,46.9,30.04,ESE,121,4.0,18.0,90,0.00,,---,0.14,0.00,VWS V14.00,2013-10-07 20:00:00,
2013-10-07 16:04:00,68.9,63.2,29.58,West,260,14.0,21.0,82,0.03,,---,0.04,0.00,VWS V14.00,2013-10-07 20:04:00,
2013-10-07 16:09:00,66.6,60.9,29.67,SSE,161,4.0,23.0,82,0.22,,---,0.23,7.00,VWS V14.00,2013-10-07 20:09:00,
2013-10-07 16:15:00,63.1,58.8,29.64,South,189,5.0,23.0,86,0.55,,---,0.56,7.00,VWS V14.00,2013-10-07 20:15:00,
2013-10-07 16:20:00,62.5,58.9,29.65,SSW,196,4.0,23.0,88,0.61,,---,0.62,5.00,VWS V14.00,2013-10-07 20:20:00,
2013-10-07 16:25:00,62.1,58.5,29.65,South,183,2.0,7.0,88,0.66,,---,0.69,7.00,VWS V14.00,2013-10-07 20:25:00,
2013-10-07 16:30:00,61.8,58.5,29.66,South,177,0.0,7.0,89,0.67,,---,0.70,5.00,VWS V14.00,2013-10-07 20:30:00,
2013-10-07 16:35:00,61.7,58.7,29.65,West,269,0.0,8.0,90,0.68,,---,0.71,5.00,VWS V14.00,2013-10-07 20:35:00,
2013-10-07 16:40:00,61.6,58.6,29.64,SSW,202,0.0,8.0,90,0.69,,---,0.72,5.00,VWS V14.00,2013-10-07 20:40:00,
2013-10-07 16:45:00,61.5,58.5,29.64,South,181,2.0,8.0,90,0.71,,---,0.74,5.00,VWS V14.00,2013-10-07 20:45:00,
2013-10-07 16:50:00,61.4,58.5,29.64,South,180,2.0,8.0,90,0.72,,---,0.75,0.00,VWS V14.00,2013-10-07 20:50:00,
2013-10-07 16:55:00,61.3,58.7,29.65,South,174,1.0,5.0,91,0.74,,---,0.77,0.00,VWS V14.00,2013-10-07 20:55:00,
2013-10-07 17:00:00,61.2,58.2,29.65,SSW,213,2.0,7.0,90,0.76,,---,0.79,5.00,VWS V14.00,2013-10-07 21:00:00,
2013-10-07 17:05:00,61.2,58.6,29.65,SSW,204,0.0,8.0,91,0.78,,---,0.81,12.00,VWS V14.00,2013-10-07 21:05:00,
2013-10-07 17:10:00,61.1,58.5,29.66,WSW,257,3.0,8.0,91,0.79,,---,0.82,18.00,VWS V14.00,2013-10-07 21:10:00,
2013-10-07 17:15:00,61.0,58.4,29.67,SW,220,1.0,8.0,91,0.79,,---,0.82,7.00,VWS V14.00,2013-10-07 21:15:00,
2013-10-07 17:20:00,60.8,58.2,29.66,SW,225,0.0,8.0,91,0.80,,---,0.83,7.00,VWS V14.00,2013-10-07 21:20:00,
2013-10-07 17:25:00,60.5,57.9,29.67,SW,227,3.0,8.0,91,0.22,,---,0.85,5.00,VWS V14.00,2013-10-07 21:25:00,
2013-10-07 17:30:00,60.4,57.8,29.66,SW,225,2.0,9.0,91,0.24,,---,0.87,11.00,VWS V14.00,2013-10-07 21:30:00,
2013-10-07 17:35:00,60.3,57.7,29.66,SSW,199,5.0,9.0,91,0.26,,---,0.89,16.00,VWS V14.00,2013-10-07 21:35:00,
2013-10-07 17:40:00,60.0,57.4,29.66,WSW,244,3.0,11.0,91,0.27,,---,0.90,28.00,VWS V14.00,2013-10-07 21:40:00,
2013-10-07 17:45:00,59.8,57.2,29.66,SW,219,2.0,11.0,91,0.27,,---,0.90,19.00,VWS V14.00,2013-10-07 21:45:00,
2013-10-07 17:50:00,59.8,57.2,29.67,WSW,250,2.0,11.0,91,0.28,,---,0.91,5.00,VWS V14.00,2013-10-07 21:50:00,
2013-10-07 17:55:00,59.9,57.3,29.68,WSW,255,7.0,8.0,91,0.15,,---,0.91,11.00,VWS V14.00,2013-10-07 21:55:00,
2013-10-07 18:00:00,59.6,57.0,29.68,South,190,4.0,11.0,91,0.15,,---,0.91,9.00,VWS V14.00,2013-10-07 22:00:00,
2013-10-07 18:06:00,59.3,56.7,29.70,South,182,0.0,12.0,91,0.15,,---,0.91,0.00,VWS V14.00,2013-10-07 22:06:00,
2013-10-07 18:11:00,59.1,56.5,29.70,SSW,196,1.0,14.0,91,0.15,,---,0.91,0.00,VWS V14.00,2013-10-07 22:11:00,
2013-10-07 18:16:00,58.9,56.3,29.71,South,180,3.0,14.0,91,0.15,,---,0.91,0.00,VWS V14.00,2013-10-07 22:16:00,
2013-10-07 18:21:00,58.7,56.1,29.71,WSW,250,3.0,14.0,91,0.15,,---,0.91,0.00,VWS V14.00,2013-10-07 22:21:00,
2013-10-07 18:26:00,58.6,56.0,29.70,West,265,3.0,8.0,91,0.08,,---,0.91,0.00,VWS V14.00,2013-10-07 22:26:00,
2013-10-07 18:30:00,50.5,48.0,30.03,SSE,149,6.0,14.0,91,0.00,,---,0.14,0.00,VWS V14.00,2013-10-07 22:30:00,
2013-10-07 18:31:00,58.5,55.9,29.72,SSW,195,5.0,9.0,91,0.08,,---,0.91,0.00,VWS V14.00,2013-10-07 22:31:00,
2013-10-07 18:36:00,58.3,55.7,29.72,SW,218,5.0,10.0,91,0.08,,---,0.91,0.00,VWS V14.00,2013-10-07 22:36:00,
2013-10-07 18:41:00,58.0,55.4,29.73,SW,221,2.0,11.0,91,0.09,,---,0.92,0.00,VWS V14.00,2013-10-07 22:41:00,
2013-10-07 18:46:00,57.7,55.1,29.73,WSW,250,9.0,11.0,91,0.09,,---,0.92,0.00,VWS V14.00,2013-10-07 22:46:00,
2013-10-07 18:51:00,57.5,54.9,29.72,WNW,290,7.0,13.0,91,0.10,,---,0.93,0.00,VWS V14.00,2013-10-07 22:51:00,
2013-10-07 18:56:00,57.3,54.7,29.74,SW,225,5.0,15.0,91,0.02,,---,0.93,0.00,VWS V14.00,2013-10-07 22:56:00,
2013-10-07 19:00:00,50.8,48.0,30.03,SSE,154,2.0,13.0,90,0.00,,---,0.14,0.00,VWS V14.00,2013-10-07 23:00:00,
2013-10-07 19:01:00,57.2,54.6,29.72,SW,226,7.0,16.0,91,0.02,,---,0.93,0.00,VWS V14.00,2013-10-07 23:01:00,
2013-10-07 19:06:00,57.1,54.5,29.74,WSW,239,5.0,16.0,91,0.02,,---,0.93,0.00,VWS V14.00,2013-10-07 23:06:00,
2013-10-07 19:11:00,57.0,54.4,29.75,South,188,4.0,16.0,91,0.02,,---,0.93,0.00,VWS V14.00,2013-10-07 23:11:00,
2013-10-07 19:16:00,56.9,54.6,29.75,SW,221,5.0,16.0,92,0.04,,---,0.95,0.00,VWS V14.00,2013-10-07 23:16:00,
2013-10-07 19:21:00,56.2,53.6,29.76,NW,322,4.0,16.0,91,0.05,,---,0.96,0.00,VWS V14.00,2013-10-07 23:21:00,
2013-10-07 19:26:00,55.2,52.3,29.75,West,262,5.0,9.0,90,0.06,,---,0.97,0.00,VWS V14.00,2013-10-07 23:26:00,
2013-10-07 19:30:00,51.3,48.5,30.02,SE,136,4.0,18.0,90,0.00,,---,0.14,0.00,VWS V14.00,2013-10-07 23:30:00,
2013-10-07 19:31:00,54.6,51.7,29.76,West,269,7.0,10.0,90,0.06,,---,0.97,0.00,VWS V14.00,2013-10-07 23:31:00,
2013-10-07 19:36:00,54.1,51.2,29.76,West,266,7.0,10.0,90,0.07,,---,0.98,0.00,VWS V14.00,2013-10-07 23:36:00,
2013-10-07 19:41:00,53.9,50.7,29.76,South,190,2.0,10.0,89,0.07,,---,0.98,0.00,VWS V14.00,2013-10-07 23:41:00,
2013-10-07 19:46:00,53.7,50.5,29.77,WSW,240,4.0,11.0,89,0.07,,---,0.98,0.00,VWS V14.00,2013-10-07 23:46:00,
2013-10-07 19:51:00,53.8,50.3,29.77,SSW,204,6.0,6.0,88,0.05,,---,0.98,0.00,VWS V14.00,2013-10-07 23:51:00,
2013-10-07 19:56:00,54.0,50.5,29.77,WNW,292,3.0,10.0,88,0.05,,---,0.98,0.00,VWS V14.00,2013-10-07 23:56:00,
2013-10-07 20:00:00,51.7,48.9,30.02,SE,124,4.0,16.0,90,0.00,,---,0.14,0.00,VWS V14.00,2013-10-08 00:00:00,
2013-10-07 20:01:00,54.0,50.2,29.77,WSW,244,5.0,11.0,87,0.05,,---,0.98,0.00,VWS V14.00,2013-10-08 00:01:00,
2013-10-07 20:06:00,54.0,50.2,29.77,SW,221,2.0,11.0,87,0.05,,---,0.98,0.00,VWS V14.00,2013-10-08 00:06:00,
2013-10-07 20:11:00,53.9,49.8,29.77,SSW,199,2.0,11.0,86,0.05,,---,0.98,0.00,VWS V14.00,2013-10-08 00:11:00,
2013-10-07 20:16:00,53.9,49.8,29.78,South,186,2.0,11.0,86,0.05,,---,0.98,0.00,VWS V14.00,2013-10-08 00:16:00,
2013-10-07 20:21:00,53.8,49.7,29.78,WSW,248,2.0,11.0,86,0.05,,---,0.98,0.00,VWS V14.00,2013-10-08 00:21:00,
2013-10-07 20:26:00,53.6,48.9,29.79,WSW,242,5.0,10.0,84,0.02,,---,0.98,0.00,VWS V14.00,2013-10-08 00:26:00,
2013-10-07 20:30:00,52.2,49.4,30.01,SE,129,5.0,18.0,90,0.00,,---,0.14,0.00,VWS V14.00,2013-10-08 00:30:00,
2013-10-07 20:31:00,53.6,48.9,29.79,SW,236,0.0,10.0,84,0.02,,---,0.98,0.00,VWS V14.00,2013-10-08 00:31:00,
2013-10-07 20:36:00,53.4,48.7,29.79,South,175,2.0,10.0,84,0.02,,---,0.98,0.00,VWS V14.00,2013-10-08 00:36:00,
2013-10-07 20:41:00,53.3,48.6,29.79,South,188,1.0,10.0,84,0.02,,---,0.98,0.00,VWS V14.00,2013-10-08 00:41:00,
2013-10-07 20:46:00,53.2,48.5,29.80,SW,219,2.0,10.0,84,0.02,,---,0.98,0.00,VWS V14.00,2013-10-08 00:46:00,
2013-10-07 20:51:00,53.1,48.4,29.80,WSW,250,1.0,3.0,84,0.00,,---,0.98,0.00,VWS V14.00,2013-10-08 00:51:00,
2013-10-07 20:56:00,53.0,48.6,29.80,South,186,3.0,5.0,85,0.00,,---,0.98,0.00,VWS V14.00,2013-10-08 00:56:00,
2013-10-07 21:00:00,52.7,49.5,30.01,East,91,13.0,24.0,89,0.00,,---,0.14,0.00,VWS V14.00,2013-10-08 01:00:00,
2013-10-07 21:01:00,53.0,48.6,29.81,WSW,251,0.0,10.0,85,0.00,,---,0.98,0.00,VWS V14.00,2013-10-08 01:01:00,
2013-10-07 21:06:00,53.0,48.6,29.81,WSW,248,3.0,12.0,85,0.00,,---,0.98,0.00,VWS V14.00,2013-10-08 01:06:00,
2013-10-07 21:11:00,52.8,48.4,29.81,SW,223,2.0,12.0,85,0.00,,---,0.98,0.00,VWS V14.00,2013-10-08 01:11:00,
2013-10-07 21:16:00,52.7,48.3,29.81,SW,220,2.0,12.0,85,0.00,,---,0.98,0.00,VWS V14.00,2013-10-08 01:16:00,
2013-10-07 21:21:00,52.7,48.3,29.82,SW,215,2.0,5.0,85,0.00,,---,0.98,0.00,VWS V14.00,2013-10-08 01:21:00,
2013-10-07 21:26:00,52.6,48.2,29.82,WSW,246,2.0,5.0,85,0.00,,---,0.98,0.00,VWS V14.00,2013-10-08 01:26:00,
2013-10-07 21:30:00,52.4,49.3,30.00,East,94,14.0,23.0,89,0.00,,---,0.14,0.00,VWS V14.00,2013-10-08 01:30:00,
2013-10-07 21:31:00,52.6,48.2,29.82,SSW,210,0.0,5.0,85,0.00,,---,0.98,0.00,VWS V14.00,2013-10-08 01:31:00,
2013-10-07 21:36:00,52.6,48.2,29.82,SSW,196,1.0,5.0,85,0.00,,---,0.98,0.00,VWS V14.00,2013-10-08 01:36:00,
2013-10-07 21:42:00,52.5,48.1,29.82,WSW,243,0.0,6.0,85,0.00,,---,0.98,0.00,VWS V14.00,2013-10-08 01:42:00,
2013-10-07 21:47:00,52.5,48.1,29.82,WSW,258,3.0,6.0,85,0.00,,---,0.98,0.00,VWS V14.00,2013-10-08 01:47:00,
2013-10-07 21:52:00,52.5,48.1,29.83,WSW,251,5.0,5.0,85,0.00,,---,0.98,0.00,VWS V14.00,2013-10-08 01:52:00,
2013-10-07 21:57:00,52.6,48.2,29.83,WSW,247,2.0,5.0,85,0.00,,---,0.98,0.00,VWS V14.00,2013-10-08 01:57:00,
2013-10-07 22:00:00,52.8,49.7,30.00,SSE,147,6.0,19.0,89,0.00,,---,0.14,0.00,VWS V14.00,2013-10-08 02:00:00,
2013-10-07 22:02:00,52.6,48.2,29.83,SSW,201,2.0,6.0,85,0.00,,---,0.98,0.00,VWS V14.00,2013-10-08 02:02:00,
2013-10-07 22:07:00,52.7,48.3,29.83,SW,227,6.0,6.0,85,0.00,,---,0.98,0.00,VWS V14.00,2013-10-08 02:07:00,
2013-10-07 22:12:00,52.6,48.2,29.83,WSW,238,2.0,7.0,85,0.00,,---,0.98,0.00,VWS V14.00,2013-10-08 02:12:00,
2013-10-07 22:17:00,52.5,47.8,29.83,WNW,300,2.0,8.0,84,0.00,,---,0.98,0.00,VWS V14.00,2013-10-08 02:17:00,
2013-10-07 22:22:00,52.4,47.7,29.83,SSW,207,3.0,3.0,84,0.00,,---,0.98,0.00,VWS V14.00,2013-10-08 02:22:00,
2013-10-07 22:27:00,52.4,47.7,29.83,SSW,194,5.0,8.0,84,0.00,,---,0.98,0.00,VWS V14.00,2013-10-08 02:27:00,
2013-10-07 22:30:00,52.7,49.5,29.99,ESE,104,13.0,27.0,89,0.00,,---,0.14,0.00,VWS V14.00,2013-10-08 02:30:00,
2013-10-07 22:32:00,52.3,47.3,29.83,WSW,246,0.0,8.0,83,0.00,,---,0.98,0.00,VWS V14.00,2013-10-08 02:32:00,
2013-10-07 22:37:00,52.3,47.3,29.83,SW,217,7.0,8.0,83,0.00,,---,0.98,0.00,VWS V14.00,2013-10-08 02:37:00,
2013-10-07 22:42:00,52.2,46.9,29.83,WSW,252,1.0,8.0,82,0.00,,---,0.98,0.00,VWS V14.00,2013-10-08 02:42:00,
2013-10-07 22:47:00,52.2,47.2,29.83,SW,227,0.0,8.0,83,0.00,,---,0.98,0.00,VWS V14.00,2013-10-08 02:47:00,
2013-10-07 22:52:00,52.1,46.8,29.84,SW,219,5.0,8.0,82,0.00,,---,0.98,0.00,VWS V14.00,2013-10-08 02:52:00,
2013-10-07 22:57:00,52.0,46.7,29.84,WSW,250,4.0,8.0,82,0.00,,---,0.98,0.00,VWS V14.00,2013-10-08 02:57:00,
2013-10-07 23:00:00,53.1,50.0,29.99,SE,142,10.0,23.0,89,0.00,,---,0.14,0.00,VWS V14.00,2013-10-08 03:00:00,
2013-10-07 23:02:00,52.0,46.7,29.84,SSW,212,2.0,8.0,82,0.00,,---,0.98,0.00,VWS V14.00,2013-10-08 03:02:00,
2013-10-07 23:07:00,51.9,46.3,29.83,SW,219,0.0,8.0,81,0.00,,---,0.98,0.00,VWS V14.00,2013-10-08 03:07:00,
2013-10-07 23:12:00,51.8,46.5,29.84,South,169,2.0,11.0,82,0.00,,---,0.98,0.00,VWS V14.00,2013-10-08 03:12:00,
2013-10-07 23:17:00,51.7,46.4,29.84,WSW,250,0.0,11.0,82,0.00,,---,0.98,0.00,VWS V14.00,2013-10-08 03:17:00,
2013-10-07 23:22:00,51.7,46.1,29.84,WSW,252,0.0,5.0,81,0.00,,---,0.98,0.00,VWS V14.00,2013-10-08 03:22:00,
2013-10-07 23:27:00,51.7,46.1,29.84,West,266,0.0,5.0,81,0.00,,---,0.98,0.00,VWS V14.00,2013-10-08 03:27:00,
2013-10-07 23:30:00,53.2,50.0,29.97,East,90,15.0,20.0,89,0.00,,---,0.14,0.00,VWS V14.00,2013-10-08 03:30:00,
2013-10-07 23:32:00,51.7,46.1,29.85,South,186,1.0,5.0,81,0.00,,---,0.98,0.00,VWS V14.00,2013-10-08 03:32:00,
2013-10-07 23:37:00,51.7,45.7,29.84,South,170,0.0,7.0,80,0.00,,---,0.98,0.00,VWS V14.00,2013-10-08 03:37:00,
2013-10-07 23:42:00,51.7,45.7,29.84,SW,231,2.0,7.0,80,0.00,,---,0.98,0.00,VWS V14.00,2013-10-08 03:42:00,
2013-10-07 23:47:00,51.6,45.6,29.84,South,188,3.0,7.0,80,0.00,,---,0.98,0.00,VWS V14.00,2013-10-08 03:47:00,
2013-10-07 23:52:00,51.5,45.2,29.85,SSW,201,6.0,8.0,79,0.00,,---,0.98,0.00,VWS V14.00,2013-10-08 03:52:00,
2013-10-07 23:57:00,51.6,45.3,29.85,SW,236,5.0,8.0,79,0.00,,---,0.98,0.00,VWS V14.00,2013-10-08 03:57:00,